Time;durP1;ratioP1;P1;durP2;ratioP2;P2;SDS_P1;SDS_P2;PMS_P1;PMS_P2;Temp;Humidity;BMP_temperature;BMP_pressure;BME280_temperature;BME280_humidity;BME280_pressure;Samples;Min_cycle;Max_cycle;Signal;HPM_P1;HPM_P2
2022/07/02 00:00:02;;;;;;;0.17;0.17;;;11.00;99.90;;;;;;5074294;28;20040;-73
2022/07/02 00:02:32;;;;;;;0.00;0.00;;;10.90;99.90;;;;;;5073559;28;20562;-72
2022/07/02 00:05:00;;;;;;;0.00;0.00;;;11.10;99.90;;;;;;5074588;28;20044;-72
2022/07/02 00:07:27;;;;;;;0.10;0.10;;;10.90;99.90;;;;;;5074009;28;20041;-71
2022/07/02 00:09:57;;;;;;;0.15;0.05;;;10.90;99.90;;;;;;5074053;28;20044;-73
2022/07/02 00:12:27;;;;;;;0.00;0.00;;;10.90;99.90;;;;;;5074461;28;20043;-74
2022/07/02 00:14:56;;;;;;;0.40;0.20;;;11.00;99.90;;;;;;5074483;28;20096;-74
2022/07/02 00:17:22;;;;;;;0.00;0.00;;;10.80;99.90;;;;;;5074245;28;20119;-73
2022/07/02 00:19:49;;;;;;;0.13;0.13;;;10.90;99.90;;;;;;5074116;28;20039;-73
2022/07/02 00:22:16;;;;;;;0.57;0.10;;;10.80;99.90;;;;;;5074690;28;20051;-73
2022/07/02 00:24:42;;;;;;;1.08;0.98;;;10.80;99.90;;;;;;5074009;28;20079;-73
2022/07/02 00:27:10;;;;;;;1.83;0.10;;;10.80;99.90;;;;;;5074104;28;20055;-73
2022/07/02 00:29:57;;;;;;;0.10;0.10;;;10.80;99.90;;;;;;5056319;28;20048;-74
2022/07/02 00:32:24;;;;;;;;;;;10.70;99.90;;;;;;5074176;28;20068;-74
2022/07/02 00:34:51;;;;;;;0.05;0.03;;;10.70;99.90;;;;;;5073964;28;19920;-73
2022/07/02 00:37:18;;;;;;;0.00;0.00;;;10.70;99.90;;;;;;5055957;28;20055;-73
2022/07/02 00:39:43;;;;;;;0.00;0.00;;;10.60;99.90;;;;;;5074074;28;20041;-74
2022/07/02 00:42:10;;;;;;;0.10;0.10;;;10.60;99.90;;;;;;5073835;28;20491;-73
2022/07/02 00:44:37;;;;;;;0.30;0.28;;;10.60;99.90;;;;;;5073874;28;20044;-74
2022/07/02 00:47:08;;;;;;;0.45;0.45;;;10.50;99.90;;;;;;5073666;28;20406;-73
2022/07/02 00:49:36;;;;;;;0.00;0.00;;;10.50;99.90;;;;;;5055979;28;20453;-74
2022/07/02 00:52:03;;;;;;;0.13;0.10;;;10.50;99.90;;;;;;5073203;28;20040;-74
2022/07/02 00:54:29;;;;;;;0.00;0.00;;;10.50;99.90;;;;;;5073643;28;20115;-73
2022/07/02 00:56:55;;;;;;;0.00;0.00;;;10.70;99.90;;;;;;5055553;28;20091;-74
2022/07/02 00:59:25;;;;;;;0.00;0.00;;;10.60;99.90;;;;;;5073311;28;20050;-73
2022/07/02 01:01:52;;;;;;;0.20;0.20;;;10.60;99.90;;;;;;5073590;28;20041;-73
2022/07/02 01:04:18;;;;;;;0.15;0.15;;;10.70;99.90;;;;;;5054767;28;20048;-73
2022/07/02 01:06:44;;;;;;;0.10;0.10;;;10.90;99.90;;;;;;5073219;28;20036;-73
2022/07/02 01:12:08;;;;;;;0.93;0.73;;;10.80;99.90;;;;;;5017724;28;20112;-74
2022/07/02 01:14:34;;;;;;;0.08;0.08;;;10.60;99.90;;;;;;5073584;28;20784;-72
2022/07/02 01:17:00;;;;;;;0.32;0.25;;;11.50;99.90;;;;;;5055347;28;20111;-72
2022/07/02 01:19:26;;;;;;;0.00;0.00;;;10.60;99.90;;;;;;5073000;28;20495;-75
2022/07/02 01:22:30;;;;;;;0.68;0.35;;;10.60;99.90;;;;;;5073614;28;20044;-74
2022/07/02 01:24:56;;;;;;;0.43;0.25;;;10.60;99.90;;;;;;5076140;28;20108;-74
2022/07/02 01:27:22;;;;;;;0.00;0.00;;;10.50;99.90;;;;;;5082027;28;20064;-73
2022/07/02 01:29:48;;;;;;;0.10;0.10;;;10.50;99.90;;;;;;5080282;28;20055;-73
2022/07/02 01:32:14;;;;;;;0.30;0.25;;;10.50;99.90;;;;;;5075516;28;20391;-73
2022/07/02 01:34:42;;;;;;;0.17;0.15;;;10.70;99.90;;;;;;5072799;28;20190;-73
2022/07/02 01:37:10;;;;;;;0.75;0.43;;;10.60;99.90;;;;;;5055609;28;20048;-74
2022/07/02 01:39:37;;;;;;;1.05;0.55;;;10.40;99.90;;;;;;5072962;28;20037;-74
2022/07/02 01:42:04;;;;;;;0.00;0.00;;;10.30;99.90;;;;;;5054860;28;20525;-73
2022/07/02 01:44:30;;;;;;;0.00;0.00;;;10.30;99.90;;;;;;5038290;28;20044;-72
2022/07/02 01:46:56;;;;;;;0.35;0.10;;;10.30;99.90;;;;;;5073213;28;20424;-72
2022/07/02 01:49:22;;;;;;;0.10;0.10;;;10.30;99.90;;;;;;5072778;28;20446;-74
2022/07/02 01:51:47;;;;;;;0.28;0.20;;;10.30;99.90;;;;;;5054932;28;20045;-74
2022/07/02 01:54:13;;;;;;;0.20;0.20;;;10.30;99.90;;;;;;5072813;28;20075;-75
2022/07/02 01:56:39;;;;;;;0.38;0.38;;;10.30;99.90;;;;;;5091761;22;20390;-71
2022/07/02 01:59:08;;;;;;;0.60;0.17;;;10.40;99.90;;;;;;5078452;28;20049;-72
2022/07/02 02:01:34;;;;;;;0.25;0.22;;;10.30;99.90;;;;;;5081843;28;20105;-72
2022/07/02 02:03:59;;;;;;;0.00;0.00;;;10.30;99.90;;;;;;5091078;28;20047;-73
2022/07/02 02:06:27;;;;;;;0.00;0.00;;;10.30;99.90;;;;;;5078080;28;20221;-72
2022/07/02 02:08:53;;;;;;;0.10;0.10;;;10.30;99.90;;;;;;5071483;28;20406;-73
2022/07/02 02:11:19;;;;;;;0.75;0.75;;;10.40;99.90;;;;;;5072075;28;20041;-72
2022/07/02 02:13:45;;;;;;;0.10;0.10;;;10.30;99.90;;;;;;5076856;28;20040;-73
2022/07/02 02:16:10;;;;;;;0.20;0.20;;;10.30;99.90;;;;;;5092317;28;20033;-73
2022/07/02 02:18:36;;;;;;;0.25;0.25;;;10.30;99.90;;;;;;5092304;28;20090;-74
2022/07/02 02:21:02;;;;;;;0.00;0.00;;;10.30;99.90;;;;;;5092498;28;20390;-74
2022/07/02 02:23:27;;;;;;;0.32;0.28;;;10.30;99.90;;;;;;5092285;28;20048;-73
2022/07/02 02:25:53;;;;;;;0.20;0.17;;;10.20;99.90;;;;;;5093550;28;20048;-73
2022/07/02 02:28:19;;;;;;;0.13;0.10;;;10.20;99.90;;;;;;5095442;28;20485;-74
2022/07/02 02:30:44;;;;;;;0.55;0.55;;;10.30;99.90;;;;;;5079502;28;20074;-73
2022/07/02 02:33:10;;;;;;;0.30;0.30;;;11.20;99.90;;;;;;5095707;28;20490;-73
2022/07/02 02:35:35;;;;;;;0.65;0.47;;;10.30;99.90;;;;;;5096265;28;20042;-73
2022/07/02 02:38:01;;;;;;;0.68;0.47;;;11.60;99.90;;;;;;5095794;28;20486;-73
2022/07/02 02:40:27;;;;;;;16.00;0.90;;;10.30;99.90;;;;;;5096085;28;20111;-73
2022/07/02 02:42:52;;;;;;;0.20;0.20;;;10.30;99.90;;;;;;5095745;28;20096;-73
2022/07/02 02:45:18;;;;;;;0.17;0.15;;;10.20;99.90;;;;;;5095738;28;20068;-74
2022/07/02 02:47:44;;;;;;;0.77;0.52;;;10.20;99.90;;;;;;5095473;28;20394;-74
2022/07/02 02:50:09;;;;;;;0.88;0.73;;;10.20;99.90;;;;;;5095813;28;20040;-73
2022/07/02 02:52:35;;;;;;;0.10;0.10;;;10.20;99.90;;;;;;5095517;28;20558;-73
2022/07/02 02:55:01;;;;;;;0.10;0.10;;;10.20;99.90;;;;;;5095652;28;20036;-73
2022/07/02 02:57:27;;;;;;;1.30;0.57;;;10.10;99.90;;;;;;5095256;28;20040;-73
2022/07/02 02:59:52;;;;;;;0.00;0.00;;;10.10;99.90;;;;;;5095361;28;20074;-73
2022/07/02 03:02:18;;;;;;;0.20;0.20;;;10.10;99.90;;;;;;5081866;28;20094;-73
2022/07/02 03:04:44;;;;;;;0.47;0.40;;;10.10;99.90;;;;;;5077895;28;20057;-73
2022/07/02 03:07:09;;;;;;;0.10;0.10;;;10.00;99.90;;;;;;5095403;28;20393;-73
2022/07/02 03:09:35;;;;;;;0.10;0.10;;;10.10;99.90;;;;;;5077328;28;20048;-73
2022/07/02 03:12:00;;;;;;;1.50;0.60;;;10.10;99.90;;;;;;5095170;28;20040;-73
2022/07/02 03:14:26;;;;;;;0.38;0.38;;;10.10;99.90;;;;;;5095256;28;20104;-73
2022/07/02 03:16:51;;;;;;;0.52;0.40;;;10.20;99.90;;;;;;5095031;28;20107;-73
2022/07/02 03:19:17;;;;;;;0.05;0.05;;;10.30;99.90;;;;;;5095275;28;20494;-73
2022/07/02 03:21:43;;;;;;;0.10;0.10;;;10.30;99.90;;;;;;5095021;28;20083;-73
2022/07/02 03:24:08;;;;;;;0.47;0.47;;;10.30;99.90;;;;;;5095081;28;20036;-73
2022/07/02 03:26:34;;;;;;;0.40;0.40;;;10.30;99.90;;;;;;5094958;28;20040;-73
2022/07/02 03:29:00;;;;;;;0.22;0.22;;;10.30;99.90;;;;;;5094926;28;20406;-73
2022/07/02 03:31:25;;;;;;;0.20;0.20;;;10.40;99.90;;;;;;5094739;28;20134;-72
2022/07/02 03:33:51;;;;;;;0.13;0.10;;;10.30;99.90;;;;;;5094623;28;20044;-73
2022/07/02 03:36:16;;;;;;;0.38;0.38;;;10.30;99.90;;;;;;5094882;28;20036;-73
2022/07/02 03:38:42;;;;;;;1.23;0.52;;;10.30;99.90;;;;;;5093799;28;20394;-73
2022/07/02 03:41:08;;;;;;;0.80;0.70;;;10.30;99.90;;;;;;5094757;28;20114;-73
2022/07/02 03:43:33;;;;;;;0.10;0.10;;;10.30;99.90;;;;;;5094592;28;20032;-73
2022/07/02 03:45:59;;;;;;;2.25;0.88;;;10.40;99.90;;;;;;5094608;28;20047;-73
2022/07/02 03:48:25;;;;;;;0.60;0.20;;;10.50;99.90;;;;;;5094477;28;20497;-73
2022/07/02 03:50:50;;;;;;;0.45;0.30;;;10.50;99.90;;;;;;5094356;28;20067;-73
2022/07/02 03:53:16;;;;;;;0.20;0.08;;;10.50;99.90;;;;;;5094542;28;20036;-73
2022/07/02 03:55:42;;;;;;;0.65;0.32;;;10.40;99.90;;;;;;5094502;28;20456;-73
2022/07/02 03:58:07;;;;;;;0.75;0.73;;;10.40;99.90;;;;;;5094300;28;20105;-73
2022/07/02 04:00:33;;;;;;;0.32;0.22;;;10.40;99.90;;;;;;5094390;28;20044;-73
2022/07/02 04:02:58;;;;;;;0.00;0.00;;;10.50;99.90;;;;;;5094372;28;20032;-73
2022/07/02 04:05:24;;;;;;;0.65;0.40;;;10.50;99.90;;;;;;5094402;28;20044;-73
2022/07/02 04:07:50;;;;;;;0.10;0.10;;;10.50;99.90;;;;;;5094227;28;20032;-73
2022/07/02 04:10:16;;;;;;;0.10;0.10;;;10.50;99.90;;;;;;5094202;28;20047;-73
2022/07/02 04:12:42;;;;;;;0.43;0.35;;;10.60;99.90;;;;;;5093682;28;20062;-73
2022/07/02 04:15:08;;;;;;;0.30;0.20;;;10.60;99.90;;;;;;5093952;28;20040;-73
2022/07/02 04:17:33;;;;;;;0.00;0.00;;;10.70;99.90;;;;;;5093798;28;20169;-73
2022/07/02 04:19:59;;;;;;;0.00;0.00;;;10.70;99.90;;;;;;5094041;28;20044;-73
2022/07/02 04:22:25;;;;;;;0.43;0.32;;;10.80;99.90;;;;;;5094038;28;20501;-73
2022/07/02 04:24:50;;;;;;;1.85;0.80;;;10.80;99.90;;;;;;5093636;28;20047;-73
2022/07/02 04:27:18;;;;;;;0.65;0.22;;;11.00;99.90;;;;;;5093862;28;20083;-73
2022/07/02 04:29:43;;;;;;;0.10;0.10;;;11.10;99.90;;;;;;5094104;28;20101;-73
2022/07/02 04:32:09;;;;;;;1.13;0.80;;;11.30;99.90;;;;;;5075282;28;20394;-73
2022/07/02 04:34:35;;;;;;;2.05;0.82;;;11.40;99.90;;;;;;5093753;28;20032;-73
2022/07/02 04:37:00;;;;;;;1.25;0.85;;;11.60;99.90;;;;;;5093753;28;20040;-73
2022/07/02 04:39:26;;;;;;;1.60;0.35;;;11.70;99.90;;;;;;5078568;28;20444;-74
2022/07/02 04:41:51;;;;;;;0.70;0.57;;;11.80;99.90;;;;;;5073495;28;20044;-73
2022/07/02 04:44:17;;;;;;;0.57;0.50;;;11.90;99.90;;;;;;5073301;28;20052;-73
2022/07/02 04:46:43;;;;;;;3.20;0.93;;;12.00;99.90;;;;;;5073201;28;20052;-74
2022/07/02 04:49:09;;;;;;;0.32;0.32;;;12.10;99.90;;;;;;5073089;28;20063;-74
2022/07/02 04:51:35;;;;;;;1.38;0.35;;;12.20;99.90;;;;;;5073200;28;20033;-73
2022/07/02 04:54:00;;;;;;;0.57;0.30;;;12.70;99.90;;;;;;5073176;28;20032;-73
2022/07/02 04:56:27;;;;;;;0.35;0.35;;;13.60;99.90;;;;;;5072926;28;20044;-73
2022/07/02 04:58:54;;;;;;;0.38;0.38;;;14.60;99.90;;;;;;5073068;28;20056;-74
2022/07/02 05:01:19;;;;;;;1.38;0.95;;;15.70;99.90;;;;;;5072987;28;20102;-74
2022/07/02 05:03:45;;;;;;;0.73;0.70;;;16.20;99.90;;;;;;5073257;28;20032;-74
2022/07/02 05:06:11;;;;;;;0.95;0.57;;;16.90;99.90;;;;;;5073028;28;20032;-74
2022/07/02 05:08:36;;;;;;;0.20;0.15;;;17.40;99.90;;;;;;5072996;28;20033;-74
2022/07/02 05:11:02;;;;;;;3.65;1.38;;;17.90;99.90;;;;;;5072884;28;20119;-73
2022/07/02 05:13:27;;;;;;;0.15;0.15;;;18.40;99.90;;;;;;5072910;28;20125;-74
2022/07/02 05:15:53;;;;;;;0.43;0.17;;;18.70;99.90;;;;;;5073349;28;20040;-74
2022/07/02 05:18:18;;;;;;;1.75;0.85;;;18.90;99.90;;;;;;5072886;28;20080;-74
2022/07/02 05:20:44;;;;;;;0.47;0.43;;;19.00;99.90;;;;;;5072899;28;20047;-74
2022/07/02 05:23:10;;;;;;;0.08;0.08;;;19.30;99.90;;;;;;5072743;28;20048;-73
2022/07/02 05:25:35;;;;;;;1.02;0.70;;;19.60;99.90;;;;;;5072729;28;20040;-74
2022/07/02 05:28:01;;;;;;;2.42;0.52;;;19.90;99.90;;;;;;5072696;28;20041;-78
2022/07/02 05:30:27;;;;;;;0.38;0.38;;;20.20;99.90;;;;;;5072628;28;20049;-74
2022/07/02 05:32:53;;;;;;;0.28;0.22;;;20.20;99.90;;;;;;5072611;28;20509;-73
2022/07/02 05:35:18;;;;;;;0.57;0.57;;;20.30;99.90;;;;;;5072609;28;20079;-74
2022/07/02 05:37:44;;;;;;;0.10;0.10;;;20.30;99.90;;;;;;5072603;28;20037;-74
2022/07/02 05:40:10;;;;;;;0.30;0.30;;;20.30;99.90;;;;;;5072648;28;20044;-74
2022/07/02 05:42:36;;;;;;;0.08;0.08;;;20.50;99.90;;;;;;5072429;28;20083;-74
2022/07/02 05:45:02;;;;;;;0.00;0.00;;;20.50;99.90;;;;;;5072444;28;20084;-74
2022/07/02 05:47:27;;;;;;;0.90;0.73;;;20.60;99.90;;;;;;5072622;28;20116;-74
2022/07/02 05:49:54;;;;;;;1.38;0.77;;;20.70;99.90;;;;;;5072474;28;20495;-74
2022/07/02 05:52:20;;;;;;;0.17;0.17;;;20.90;97.90;;;;;;5072225;28;20494;-74
2022/07/02 05:54:46;;;;;;;0.47;0.32;;;21.10;96.80;;;;;;5072345;28;20186;-74
2022/07/02 05:57:12;;;;;;;0.82;0.55;;;21.20;93.70;;;;;;5072194;28;20550;-74
2022/07/02 05:59:38;;;;;;;0.10;0.10;;;21.40;95.30;;;;;;5072253;28;20040;-74
2022/07/02 06:02:04;;;;;;;0.20;0.20;;;21.50;93.50;;;;;;5075481;28;20402;-74
2022/07/02 06:04:31;;;;;;;0.10;0.10;;;22.00;88.30;;;;;;5076388;28;20033;-74
2022/07/02 06:09:41;;;;;;;0.10;0.00;;;22.00;85.20;;;;;;5075974;28;20522;-74
2022/07/02 06:12:07;;;;;;;0.10;0.10;;;22.00;79.90;;;;;;5075947;28;20041;-74
2022/07/02 06:14:33;;;;;;;2.13;1.38;;;22.10;75.40;;;;;;5076134;28;20161;-74
2022/07/02 06:16:59;;;;;;;0.13;0.13;;;22.10;77.40;;;;;;5076061;28;20081;-74
2022/07/02 06:19:25;;;;;;;0.00;0.00;;;22.30;76.20;;;;;;5076073;28;20036;-74
2022/07/02 06:21:51;;;;;;;1.00;0.60;;;22.30;72.10;;;;;;5075893;28;20040;-74
2022/07/02 06:24:17;;;;;;;0.45;0.40;;;22.60;79.70;;;;;;5075926;28;20116;-74
2022/07/02 06:26:43;;;;;;;0.10;0.05;;;23.20;77.10;;;;;;5075870;28;20048;-74
2022/07/02 06:29:09;;;;;;;0.20;0.13;;;23.60;53.70;;;;;;5075922;28;20536;-74
2022/07/02 06:31:34;;;;;;;1.02;0.65;;;23.60;43.10;;;;;;5075711;28;20429;-74
2022/07/02 06:34:00;;;;;;;0.00;0.00;;;23.50;42.50;;;;;;5075876;28;20094;-74
2022/07/02 06:36:26;;;;;;;0.00;0.00;;;23.40;47.10;;;;;;5075578;28;20047;-74
2022/07/02 06:38:52;;;;;;;1.00;0.65;;;23.50;48.80;;;;;;5075371;28;20040;-74
2022/07/02 06:44:03;;;;;;;1.85;0.85;;;23.50;35.50;;;;;;5075817;28;20056;-74
2022/07/02 06:46:29;;;;;;;0.30;0.30;;;23.60;34.10;;;;;;5075595;28;20090;-74
2022/07/02 06:48:55;;;;;;;0.00;0.00;;;23.90;31.20;;;;;;5075270;28;20076;-74
2022/07/02 06:51:20;;;;;;;0.63;0.32;;;23.90;28.60;;;;;;5075179;28;20048;-74
2022/07/02 06:53:46;;;;;;;0.70;0.70;;;24.00;31.10;;;;;;5074941;28;20041;-74
2022/07/02 06:56:12;;;;;;;0.00;0.00;;;24.00;25.60;;;;;;5075097;28;20041;-75
2022/07/02 06:58:38;;;;;;;0.05;0.05;;;24.40;27.90;;;;;;5075015;28;20123;-74
2022/07/02 07:01:03;;;;;;;0.40;0.30;;;24.80;19.00;;;;;;5075010;28;20178;-74
2022/07/02 07:03:29;;;;;;;1.25;0.38;;;24.70;13.50;;;;;;5075228;28;20036;-75
2022/07/02 07:05:54;;;;;;;0.63;0.52;;;24.80;14.50;;;;;;5074778;28;20048;-74
2022/07/02 07:08:20;;;;;;;1.95;0.60;;;24.80;11.50;;;;;;5074616;28;20072;-74
2022/07/02 07:10:45;;;;;;;1.08;0.57;;;24.80;10.90;;;;;;5074530;28;20047;-74
2022/07/02 07:13:11;;;;;;;1.65;0.22;;;24.90;10.60;;;;;;5074694;28;20405;-74
2022/07/02 07:15:36;;;;;;;0.30;0.17;;;24.90;8.90;;;;;;5074598;28;20055;-74
2022/07/02 07:18:02;;;;;;;0.10;0.10;;;25.20;9.00;;;;;;5074380;28;20040;-75
2022/07/02 07:20:29;;;;;;;0.00;0.00;;;25.30;5.80;;;;;;5074386;28;20040;-74
2022/07/02 07:22:55;;;;;;;0.00;0.00;;;25.50;6.70;;;;;;5073813;28;20048;-74
2022/07/02 07:25:22;;;;;;;0.00;0.00;;;25.60;1.00;;;;;;5074119;28;20490;-74
2022/07/02 07:27:48;;;;;;;0.00;0.00;;;25.40;1.00;;;;;;5074426;28;20078;-74
2022/07/02 07:30:14;;;;;;;0.00;0.00;;;25.20;1.30;;;;;;5074334;28;20048;-74
2022/07/02 07:32:41;;;;;;;0.35;0.20;;;25.40;1.00;;;;;;5073764;28;20037;-75
2022/07/02 07:35:07;;;;;;;0.00;0.00;;;25.10;1.00;;;;;;5074150;28;20075;-74
2022/07/02 07:37:33;;;;;;;0.00;0.00;;;25.10;1.00;;;;;;5055980;28;20049;-75
2022/07/02 07:39:58;;;;;;;0.10;0.10;;;25.40;1.00;;;;;;5073928;28;20127;-74
2022/07/02 07:42:25;;;;;;;0.00;0.00;;;25.30;1.00;;;;;;5074050;28;20395;-74
2022/07/02 07:44:51;;;;;;;0.00;0.00;;;25.50;1.00;;;;;;5056002;28;20124;-74
2022/07/02 07:47:16;;;;;;;0.13;0.10;;;25.20;1.00;;;;;;5073670;28;20063;-74
2022/07/02 07:49:42;;;;;;;0.00;0.00;;;25.30;1.00;;;;;;5073639;28;20072;-74
2022/07/02 07:52:07;;;;;;;0.47;0.20;;;25.40;1.00;;;;;;5055509;28;20487;-74
2022/07/02 07:54:33;;;;;;;0.13;0.10;;;25.40;1.00;;;;;;5073566;28;20041;-74
2022/07/02 07:56:59;;;;;;;0.10;0.10;;;25.50;1.00;;;;;;5073418;28;20078;-74
2022/07/02 07:59:24;;;;;;;0.03;0.00;;;25.50;1.00;;;;;;5055641;28;20084;-74
2022/07/02 08:01:50;;;;;;;0.00;0.00;;;25.50;1.00;;;;;;5073491;28;20040;-74
2022/07/02 08:04:15;;;;;;;0.00;0.00;;;25.60;1.00;;;;;;5073426;28;20043;-74
2022/07/02 08:06:41;;;;;;;0.60;0.32;;;26.10;1.00;;;;;;5073153;28;20372;-75
2022/07/02 08:09:07;;;;;;;0.30;0.22;;;26.00;1.00;;;;;;5073225;28;20463;-74
2022/07/02 08:11:32;;;;;;;0.00;0.00;;;25.80;1.00;;;;;;5073392;28;20040;-74
2022/07/02 08:13:58;;;;;;;0.08;0.08;;;26.00;1.00;;;;;;5073366;28;20491;-74
2022/07/02 08:16:23;;;;;;;0.00;0.00;;;26.10;1.00;;;;;;5073346;28;20040;-74
2022/07/02 08:18:49;;;;;;;0.03;0.03;;;26.70;1.00;;;;;;5073136;28;20071;-74
2022/07/02 08:21:15;;;;;;;0.00;0.00;;;27.20;1.00;;;;;;5072992;28;20044;-74
2022/07/02 08:23:41;;;;;;;0.10;0.10;;;26.80;1.00;;;;;;5072736;28;20040;-74
2022/07/02 08:26:07;;;;;;;0.00;0.00;;;26.90;1.00;;;;;;5055178;28;20049;-74
2022/07/02 08:28:33;;;;;;;0.35;0.15;;;27.20;1.00;;;;;;5072888;28;20052;-74
2022/07/02 08:30:59;;;;;;;0.00;0.00;;;27.50;1.00;;;;;;5072833;28;20052;-74
2022/07/02 08:33:25;;;;;;;0.00;0.00;;;27.40;1.00;;;;;;5072913;28;20055;-74
2022/07/02 08:35:50;;;;;;;0.00;0.00;;;27.20;1.00;;;;;;5072804;28;20123;-74
2022/07/02 08:38:16;;;;;;;0.00;0.00;;;26.60;1.00;;;;;;5073004;28;20133;-74
2022/07/02 08:40:43;;;;;;;0.00;0.00;;;26.50;1.00;;;;;;5072934;28;20394;-74
2022/07/02 08:43:12;;;;;;;0.00;0.00;;;26.40;1.00;;;;;;5072732;28;20600;-74
2022/07/02 08:45:41;;;;;;;0.00;0.00;;;26.70;1.00;;;;;;5072810;28;20123;-74
2022/07/02 08:48:08;;;;;;;0.20;0.17;;;27.30;1.00;;;;;;5072481;28;20049;-74
2022/07/02 08:50:36;;;;;;;0.22;0.10;;;27.40;1.00;;;;;;5072724;28;20086;-74
2022/07/02 08:53:04;;;;;;;1.00;0.38;;;27.60;1.00;;;;;;5072345;28;20499;-74
2022/07/02 08:55:32;;;;;;;0.00;0.00;;;27.60;1.00;;;;;;5072733;28;20055;-74
2022/07/02 08:57:59;;;;;;;0.10;0.10;;;27.40;1.00;;;;;;5072366;28;20075;-74
2022/07/02 09:00:25;;;;;;;0.00;0.00;;;27.60;1.00;;;;;;5054520;28;20052;-73
2022/07/02 09:02:53;;;;;;;0.00;0.00;;;27.40;1.00;;;;;;5072349;28;20105;-74
2022/07/02 09:05:21;;;;;;;0.25;0.22;;;26.80;1.00;;;;;;5072690;28;20135;-74
2022/07/02 09:07:47;;;;;;;0.00;0.00;;;26.80;1.00;;;;;;5054317;28;20132;-74
2022/07/02 09:10:17;;;;;;;0.00;0.00;;;26.60;1.00;;;;;;5072705;28;20123;-74
2022/07/02 09:12:43;;;;;;;0.00;0.00;;;26.30;1.00;;;;;;5072369;28;20099;-73
2022/07/02 09:15:10;;;;;;;0.00;0.00;;;26.50;1.00;;;;;;5072280;28;20098;-74
2022/07/02 09:17:36;;;;;;;1.30;0.28;;;26.60;1.00;;;;;;5072179;28;20448;-74
2022/07/02 09:20:04;;;;;;;0.00;0.00;;;26.60;1.00;;;;;;5072564;28;20041;-74
2022/07/02 09:22:36;;;;;;;0.00;0.00;;;26.50;1.00;;;;;;5072418;28;20392;-74
2022/07/02 09:25:11;;;;;;;0.00;0.00;;;26.20;1.00;;;;;;5072213;28;20052;-73
2022/07/02 09:27:36;;;;;;;0.22;0.22;;;26.30;1.00;;;;;;5072074;28;20083;-74
2022/07/02 09:30:04;;;;;;;2.75;0.55;;;26.50;1.00;;;;;;5072040;28;20072;-74
2022/07/02 09:32:41;;;;;;;0.10;0.08;;;26.70;1.00;;;;;;5071923;28;20076;-74
2022/07/02 09:35:07;;;;;;;0.00;0.00;;;26.60;1.00;;;;;;5072147;28;20113;-74
2022/07/02 09:37:33;;;;;;;0.25;0.22;;;26.40;1.00;;;;;;5076236;28;20145;-74
2022/07/02 09:40:02;;;;;;;0.00;0.00;;;26.30;1.00;;;;;;5076114;28;20490;-74
2022/07/02 09:42:33;;;;;;;0.00;0.00;;;26.40;1.00;;;;;;5076347;28;20072;-74
2022/07/02 09:45:01;;;;;;;0.00;0.00;;;26.80;1.00;;;;;;5076471;28;20047;-73
2022/07/02 09:47:36;;;;;;;0.00;0.00;;;27.00;1.00;;;;;;5058155;28;20048;-74
2022/07/02 09:50:04;;;;;;;0.00;0.00;;;26.90;1.00;;;;;;5076183;28;20051;-73
2022/07/02 09:52:30;;;;;;;0.10;0.10;;;26.60;1.00;;;;;;5081147;28;20123;-74
2022/07/02 09:54:56;;;;;;;0.08;0.05;;;26.40;1.00;;;;;;5075924;28;20174;-74
2022/07/02 09:57:21;;;;;;;0.00;0.00;;;26.30;1.00;;;;;;5075667;28;20462;-74
2022/07/02 09:59:47;;;;;;;1.85;0.25;;;26.10;1.00;;;;;;5076013;28;20072;-74
2022/07/02 10:02:25;;;;;;;0.00;0.00;;;26.10;1.00;;;;;;5075912;28;20163;-74
2022/07/02 10:04:58;;;;;;;0.20;0.15;;;26.00;1.00;;;;;;5075732;28;20454;-74
2022/07/02 10:07:24;;;;;;;0.03;0.00;;;25.70;1.00;;;;;;5058031;28;20036;-74
2022/07/02 10:09:51;;;;;;;0.10;0.05;;;25.70;1.00;;;;;;5075868;28;20071;-74
2022/07/02 10:12:17;;;;;;;0.00;0.00;;;25.60;1.00;;;;;;5075761;28;20044;-74
2022/07/02 10:14:45;;;;;;;0.05;0.05;;;25.70;1.00;;;;;;5074942;28;20045;-74
2022/07/02 10:17:12;;;;;;;0.20;0.10;;;25.80;1.00;;;;;;5075453;28;20154;-73
2022/07/02 10:19:38;;;;;;;0.00;0.00;;;26.00;1.00;;;;;;5075500;28;20043;-74
2022/07/02 10:22:06;;;;;;;0.10;0.10;;;25.90;1.00;;;;;;5075392;28;20086;-74
2022/07/02 10:24:32;;;;;;;3.65;0.20;;;26.10;1.00;;;;;;5075178;28;20360;-73
2022/07/02 10:27:00;;;;;;;0.52;0.15;;;25.80;1.00;;;;;;5075714;28;20062;-74
2022/07/02 10:29:27;;;;;;;0.00;0.00;;;25.90;1.00;;;;;;5075406;28;20123;-74
2022/07/02 10:32:20;;;;;;;0.00;0.00;;;25.90;1.00;;;;;;5075011;28;20082;-74
2022/07/02 10:35:09;;;;;;;0.00;0.00;;;26.10;1.00;;;;;;5074464;28;20501;-74
2022/07/02 10:37:39;;;;;;;0.00;0.00;;;26.10;1.00;;;;;;5075182;28;20040;-74
2022/07/02 10:40:05;;;;;;;0.00;0.00;;;25.80;1.00;;;;;;5075212;28;20051;-74
2022/07/02 10:42:48;;;;;;;0.65;0.43;;;25.90;1.00;;;;;;5075290;28;20057;-74
2022/07/02 10:45:19;;;;;;;0.00;0.00;;;26.10;1.00;;;;;;5075331;28;20371;-74
2022/07/02 10:48:03;;;;;;;0.00;0.00;;;26.50;1.00;;;;;;5074639;28;20044;-74
2022/07/02 10:50:35;;;;;;;0.30;0.08;;;26.50;1.00;;;;;;5075194;28;20041;-74
2022/07/02 10:53:10;;;;;;;0.00;0.00;;;26.50;1.00;;;;;;5074968;28;20037;-74
2022/07/02 10:55:36;;;;;;;0.57;0.38;;;26.80;1.00;;;;;;5075361;28;20044;-74
2022/07/02 10:58:05;;;;;;;0.10;0.10;;;27.10;1.00;;;;;;5074953;28;20522;-74
2022/07/02 11:00:36;;;;;;;0.00;0.00;;;27.10;1.00;;;;;;5075060;28;20045;-75
2022/07/02 11:03:19;;;;;;;0.00;0.00;;;27.10;1.00;;;;;;5074624;28;20050;-74
2022/07/02 11:06:03;;;;;;;1.98;0.32;;;27.20;1.00;;;;;;5074602;28;20158;-74
2022/07/02 11:08:44;;;;;;;0.00;0.00;;;27.50;1.00;;;;;;5075006;28;20047;-74
2022/07/02 11:11:39;;;;;;;0.00;0.00;;;27.70;1.00;;;;;;5074600;28;20044;-74
2022/07/02 11:14:12;;;;;;;0.00;0.00;;;28.00;1.00;;;;;;5062903;28;20529;-75
2022/07/02 11:16:39;;;;;;;0.00;0.00;;;28.00;1.00;;;;;;5074732;28;20094;-74
2022/07/02 11:19:17;;;;;;;0.05;0.05;;;28.20;1.00;;;;;;5074671;28;20036;-74
2022/07/02 11:21:43;;;;;;;0.00;0.00;;;28.20;1.00;;;;;;5074419;28;20045;-74
2022/07/02 11:24:12;;;;;;;0.00;0.00;;;27.70;1.00;;;;;;5074203;28;20055;-74
2022/07/02 11:26:42;;;;;;;0.00;0.00;;;27.50;1.00;;;;;;5074239;28;20037;-74
2022/07/02 11:29:08;;;;;;;0.10;0.08;;;27.30;1.00;;;;;;5056337;28;20053;-74
2022/07/02 11:31:55;;;;;;;1.38;0.55;;;27.30;1.00;;;;;;5074264;28;20107;-73
2022/07/02 11:34:23;;;;;;;0.17;0.00;;;27.90;1.00;;;;;;5056320;28;20044;-74
2022/07/02 11:36:49;;;;;;;0.17;0.10;;;28.40;1.00;;;;;;5074494;28;20048;-74
2022/07/02 11:39:17;;;;;;;0.00;0.00;;;28.10;1.00;;;;;;5074119;28;20075;-74
2022/07/02 11:41:44;;;;;;;0.00;0.00;;;28.90;1.00;;;;;;5074281;28;20040;-74
2022/07/02 11:44:20;;;;;;;0.13;0.13;;;29.30;1.00;;;;;;5074249;28;20059;-74
2022/07/02 11:47:00;;;;;;;;;;;29.10;1.00;;;;;;5074261;28;20048;-75
2022/07/02 11:49:33;;;;;;;0.00;0.00;;;28.50;1.00;;;;;;5056153;28;19966;-75
2022/07/02 11:51:58;;;;;;;0.22;0.22;;;28.50;1.00;;;;;;5074008;28;20048;-74
2022/07/02 11:54:26;;;;;;;0.00;0.00;;;29.30;1.00;;;;;;5073914;28;20403;-74
2022/07/02 11:56:53;;;;;;;1.02;0.38;;;29.40;1.00;;;;;;5073496;28;20064;-74
2022/07/02 11:59:21;;;;;;;0.00;0.00;;;28.90;1.00;;;;;;5072695;28;20076;-74
2022/07/02 12:01:49;;;;;;;0.00;0.00;;;28.50;1.00;;;;;;5073527;28;20052;-75
2022/07/02 12:04:17;;;;;;;0.47;0.20;;;28.70;1.00;;;;;;5073351;28;20087;-74
2022/07/02 12:06:45;;;;;;;0.00;0.00;;;29.90;1.00;;;;;;5073456;28;20047;-75
2022/07/02 12:09:15;;;;;;;0.25;0.20;;;29.40;1.00;;;;;;5055239;28;20040;-74
2022/07/02 12:11:44;;;;;;;0.00;0.00;;;28.60;1.00;;;;;;5073466;28;20086;-73
2022/07/02 12:14:11;;;;;;;0.00;0.00;;;27.90;1.00;;;;;;5073270;28;20517;-74
2022/07/02 12:16:39;;;;;;;0.00;0.00;;;28.20;1.00;;;;;;5055327;28;20059;-74
2022/07/02 12:19:10;;;;;;;0.00;0.00;;;28.10;1.00;;;;;;5073445;28;20040;-74
2022/07/02 12:21:37;;;;;;;0.00;0.00;;;27.80;1.00;;;;;;5073369;28;20048;-74
2022/07/02 12:24:27;;;;;;;0.00;0.00;;;27.50;1.00;;;;;;5073247;28;20100;-74
2022/07/02 12:26:54;;;;;;;0.00;0.00;;;27.20;1.00;;;;;;5072990;28;20047;-74
2022/07/02 12:32:21;;;;;;;0.00;0.00;;;27.00;1.00;;;;;;5072985;28;20045;-74
2022/07/02 12:34:49;;;;;;;0.00;0.00;;;26.90;1.00;;;;;;5073007;28;20109;-74
2022/07/02 12:37:28;;;;;;;0.00;0.00;;;26.80;1.00;;;;;;5055259;28;20040;-74
2022/07/02 12:39:58;;;;;;;0.40;0.10;;;26.70;1.00;;;;;;5073073;28;20037;-74
2022/07/02 12:42:24;;;;;;;0.00;0.00;;;26.60;1.00;;;;;;5073182;28;20060;-74
2022/07/02 12:44:51;;;;;;;0.00;0.00;;;27.60;1.00;;;;;;5073113;28;20037;-75
2022/07/02 12:47:27;;;;;;;0.00;0.00;;;27.80;1.00;;;;;;5072644;28;20462;-74
2022/07/02 12:49:54;;;;;;;0.00;0.00;;;28.10;1.00;;;;;;5072601;28;20070;-74
2022/07/02 12:52:20;;;;;;;0.00;0.00;;;28.20;1.00;;;;;;5072782;28;20040;-74
2022/07/02 12:54:45;;;;;;;0.00;0.00;;;28.30;1.00;;;;;;5072519;28;20040;-74
2022/07/02 12:57:17;;;;;;;0.00;0.00;;;29.30;1.00;;;;;;5072203;28;20124;-74
2022/07/02 12:59:43;;;;;;;0.10;0.10;;;29.70;1.00;;;;;;5072469;28;20040;-74
2022/07/02 13:02:17;;;;;;;0.15;0.10;;;29.20;1.00;;;;;;5072635;28;20039;-74
2022/07/02 13:04:44;;;;;;;0.03;0.00;;;28.70;1.00;;;;;;5072594;28;20482;-74